createdAt,value
2022-12-19T00:01:34.173Z,15.10
2022-12-19T00:04:08.138Z,14.37
2022-12-19T00:06:36.980Z,15.83
2022-12-19T00:09:04.427Z,15.03
2022-12-19T00:11:31.171Z,14.00
2022-12-19T00:13:58.736Z,13.63
2022-12-19T00:16:29.861Z,14.73
2022-12-19T00:18:58.868Z,14.80
2022-12-19T00:21:31.235Z,14.20
2022-12-19T00:24:01.679Z,14.53
2022-12-19T00:26:31.273Z,13.87
2022-12-19T00:29:11.161Z,14.70
2022-12-19T00:31:40.622Z,13.50
2022-12-19T00:34:07.198Z,15.40
2022-12-19T00:36:34.392Z,14.40
2022-12-19T00:39:08.225Z,13.27
2022-12-19T00:41:41.392Z,14.93
2022-12-19T00:44:13.915Z,15.10
2022-12-19T00:46:40.901Z,15.53
2022-12-19T00:49:07.676Z,14.33
2022-12-19T00:51:36.204Z,15.30
2022-12-19T00:54:05.385Z,13.83
2022-12-19T00:56:37.893Z,14.37
2022-12-19T00:59:05.141Z,16.47
2022-12-19T01:01:35.377Z,13.70
2022-12-19T01:06:53.235Z,14.93
2022-12-19T01:09:21.557Z,14.67
2022-12-19T01:12:06.556Z,14.93
2022-12-19T01:14:33.118Z,15.50
2022-12-19T01:16:59.732Z,13.70
2022-12-19T01:19:27.349Z,12.97
2022-12-19T01:21:53.973Z,13.53
2022-12-19T01:24:20.961Z,14.60
2022-12-19T01:26:47.501Z,15.90
2022-12-19T01:29:14.030Z,14.80
2022-12-19T01:31:40.680Z,13.80
2022-12-19T01:34:07.272Z,14.60
2022-12-19T01:36:35.249Z,14.80
2022-12-19T01:39:06.709Z,13.50
2022-12-19T01:41:33.349Z,15.10
2022-12-19T01:44:01.072Z,15.00
2022-12-19T01:46:35.485Z,12.77
2022-12-19T01:49:03.869Z,13.70
2022-12-19T01:51:41.628Z,15.67
2022-12-19T01:54:13.856Z,14.90
2022-12-19T01:56:45.000Z,14.70
2022-12-19T01:59:19.941Z,14.20
2022-12-19T02:01:56.693Z,13.23
2022-12-19T02:04:25.623Z,12.90
2022-12-19T02:06:55.540Z,15.33
2022-12-19T02:09:22.089Z,14.30
2022-12-19T02:11:48.713Z,13.43
2022-12-19T02:14:15.440Z,14.57
2022-12-19T02:17:01.779Z,14.97
2022-12-19T02:19:56.386Z,14.17
2022-12-19T02:22:59.810Z,12.20
2022-12-19T02:25:47.939Z,13.90
2022-12-19T02:28:45.410Z,13.57
2022-12-19T02:31:16.791Z,12.70
2022-12-19T02:33:55.349Z,13.87
2022-12-19T02:37:00.502Z,14.80
2022-12-19T02:39:57.653Z,12.30
2022-12-19T02:42:39.088Z,12.83
2022-12-19T02:45:08.863Z,13.23
2022-12-19T02:47:36.057Z,13.20
2022-12-19T02:50:04.333Z,13.63
2022-12-19T02:52:30.822Z,13.63
2022-12-19T02:55:04.477Z,13.67
2022-12-19T02:57:51.552Z,13.80
2022-12-19T03:00:20.842Z,14.00
2022-12-19T03:03:04.063Z,13.80
2022-12-19T03:05:46.629Z,13.37
2022-12-19T03:08:53.568Z,13.30
2022-12-19T03:11:21.862Z,13.80
2022-12-19T03:13:57.921Z,14.43
2022-12-19T03:16:25.488Z,14.27
2022-12-19T03:18:54.584Z,13.53
2022-12-19T03:21:27.255Z,13.43
2022-12-19T03:23:55.445Z,14.50
2022-12-19T03:26:25.218Z,12.80
2022-12-19T03:29:13.956Z,12.17
2022-12-19T03:31:42.207Z,13.37
2022-12-19T03:34:15.858Z,11.90
2022-12-19T03:36:49.849Z,12.50
2022-12-19T03:39:19.726Z,12.33
2022-12-19T03:42:05.673Z,12.70
2022-12-19T03:44:36.121Z,14.13
2022-12-19T03:47:18.611Z,11.90
2022-12-19T03:49:46.340Z,10.67
2022-12-19T03:52:31.006Z,13.10
2022-12-19T03:55:12.623Z,12.40
2022-12-19T03:57:51.207Z,12.97
2022-12-19T04:00:19.670Z,11.53
2022-12-19T04:02:49.817Z,11.80
2022-12-19T04:05:21.256Z,12.10
2022-12-19T04:07:49.253Z,11.33
2022-12-19T04:10:19.083Z,10.40
2022-12-19T04:12:50.399Z,11.73
2022-12-19T04:15:17.287Z,11.77
2022-12-19T04:17:55.322Z,11.40
2022-12-19T04:20:25.978Z,11.77
2022-12-19T04:23:08.597Z,11.43
2022-12-19T04:25:39.177Z,11.93
2022-12-19T04:28:20.139Z,11.63
2022-12-19T04:30:48.431Z,12.63
2022-12-19T04:33:15.223Z,12.03
2022-12-19T04:35:41.926Z,12.70
2022-12-19T04:38:08.674Z,11.80
2022-12-19T04:40:40.951Z,12.77
2022-12-19T04:43:08.403Z,12.53
2022-12-19T04:45:35.037Z,11.37
2022-12-19T04:48:02.461Z,10.37
2022-12-19T04:50:29.093Z,12.07
2022-12-19T04:52:58.722Z,12.20
2022-12-19T04:55:25.433Z,12.30
2022-12-19T04:57:51.981Z,10.10
2022-12-19T05:00:18.607Z,11.90
2022-12-19T05:02:45.734Z,12.73
2022-12-19T05:05:12.367Z,12.37
2022-12-19T05:07:40.470Z,12.07
2022-12-19T05:10:07.891Z,11.90
2022-12-19T05:12:34.608Z,12.90
2022-12-19T05:15:01.227Z,11.70
2022-12-19T05:17:27.914Z,12.03
2022-12-19T05:19:54.465Z,12.20
2022-12-19T05:22:21.035Z,11.70
2022-12-19T05:24:47.628Z,13.10
2022-12-19T05:27:14.219Z,11.83
2022-12-19T05:29:40.765Z,12.30
2022-12-19T05:32:07.309Z,13.20
2022-12-19T05:34:33.966Z,10.60
2022-12-19T05:37:02.941Z,12.33
2022-12-19T05:39:30.243Z,13.60
2022-12-19T05:41:56.963Z,12.83
2022-12-19T05:44:23.980Z,13.20
2022-12-19T05:46:51.116Z,12.17
2022-12-19T05:49:17.737Z,12.60
2022-12-19T05:51:44.496Z,13.60
2022-12-19T05:54:11.043Z,12.70
2022-12-19T05:56:37.593Z,12.83
2022-12-19T05:59:04.154Z,11.53
2022-12-19T06:01:32.211Z,13.00
2022-12-19T06:03:58.836Z,12.10
2022-12-19T06:06:26.555Z,12.00
2022-12-19T06:08:57.752Z,12.00
2022-12-19T06:11:24.959Z,12.93
2022-12-19T06:13:51.785Z,12.93
2022-12-19T06:16:22.246Z,13.47
2022-12-19T06:18:49.256Z,13.10
2022-12-19T06:21:21.338Z,12.70
2022-12-19T06:23:48.585Z,12.53
2022-12-19T06:26:19.889Z,11.50
2022-12-19T06:28:48.403Z,13.20
2022-12-19T06:31:15.482Z,11.93
2022-12-19T06:33:42.253Z,11.17
2022-12-19T06:36:15.740Z,13.00
2022-12-19T06:38:42.380Z,13.10
2022-12-19T06:41:29.467Z,11.20
2022-12-19T06:44:00.101Z,12.77
2022-12-19T06:46:26.774Z,12.53
2022-12-19T06:48:53.463Z,11.97
2022-12-19T06:51:20.543Z,11.37
2022-12-19T06:53:47.086Z,11.47
2022-12-19T06:56:15.791Z,12.67
2022-12-19T06:58:42.528Z,11.90
2022-12-19T07:01:45.805Z,10.33
2022-12-19T07:04:16.163Z,11.20
2022-12-19T07:06:48.693Z,10.67
2022-12-19T07:09:15.738Z,11.07
2022-12-19T07:11:42.294Z,11.43
2022-12-19T07:14:08.877Z,10.97
2022-12-19T07:16:37.586Z,10.23
2022-12-19T07:19:05.297Z,10.80
2022-12-19T07:21:32.057Z,11.60
2022-12-19T07:23:59.589Z,10.50
2022-12-19T07:26:26.732Z,10.17
2022-12-19T07:28:53.859Z,10.93
2022-12-19T07:31:20.445Z,9.87
2022-12-19T07:33:47.027Z,10.27
2022-12-19T07:36:13.602Z,10.60
2022-12-19T07:38:40.124Z,10.30
2022-12-19T07:41:06.669Z,10.80
2022-12-19T07:43:33.210Z,10.10
2022-12-19T07:45:59.785Z,10.80
2022-12-19T07:48:28.670Z,9.90
2022-12-19T07:50:55.212Z,10.00
2022-12-19T07:53:21.843Z,10.13
2022-12-19T07:55:52.155Z,10.50
2022-12-19T07:58:19.297Z,9.80
2022-12-19T08:00:45.995Z,10.20
2022-12-19T08:03:12.702Z,8.97
2022-12-19T08:05:39.367Z,8.60
2022-12-19T08:08:05.967Z,9.00
2022-12-19T08:10:32.626Z,9.33
2022-12-19T08:12:59.175Z,9.07
2022-12-19T08:15:25.961Z,9.60
2022-12-19T08:17:54.317Z,9.40
2022-12-19T08:20:23.242Z,8.80
2022-12-19T08:22:49.826Z,8.73
2022-12-19T08:25:16.436Z,9.10
2022-12-19T08:27:43.084Z,10.10
2022-12-19T08:30:10.253Z,8.73
2022-12-19T08:32:36.793Z,8.83
2022-12-19T08:35:03.442Z,8.30
2022-12-19T08:37:30.058Z,9.13
2022-12-19T08:39:56.632Z,9.17
2022-12-19T08:42:23.195Z,8.77
2022-12-19T08:44:49.813Z,8.83
2022-12-19T08:47:16.376Z,9.40
2022-12-19T08:49:42.931Z,8.80
2022-12-19T08:52:09.591Z,9.33
2022-12-19T08:54:36.243Z,9.23
2022-12-19T08:57:02.791Z,8.93
2022-12-19T08:59:31.167Z,10.90
2022-12-19T09:02:00.329Z,9.20
2022-12-19T09:05:58.508Z,8.90
2022-12-19T09:07:15.783Z,10.57
2022-12-19T09:09:43.117Z,9.80
2022-12-19T09:12:09.714Z,9.97
2022-12-19T09:14:36.760Z,8.03
2022-12-19T09:17:04.497Z,8.93
2022-12-19T09:19:32.149Z,10.67
2022-12-19T09:21:58.850Z,9.60
2022-12-19T09:24:25.495Z,9.03
2022-12-19T09:26:52.423Z,10.10
2022-12-19T09:29:20.979Z,9.30
2022-12-19T09:31:55.466Z,9.23
2022-12-19T09:34:37.409Z,9.60
2022-12-19T09:37:08.020Z,8.57
2022-12-19T09:39:36.000Z,8.20
2022-12-19T09:42:35.082Z,9.77
2022-12-19T09:45:34.324Z,8.43
2022-12-19T09:48:02.615Z,9.30
2022-12-19T09:50:47.296Z,7.93
2022-12-19T09:53:25.162Z,9.60
2022-12-19T09:55:53.902Z,8.43
2022-12-19T09:58:44.934Z,9.20
2022-12-19T10:01:21.340Z,8.50
2022-12-19T10:04:00.107Z,8.80
2022-12-19T10:07:11.367Z,8.67
2022-12-19T10:10:01.902Z,9.20
2022-12-19T10:12:45.572Z,8.40
2022-12-19T10:15:37.860Z,8.00
2022-12-19T10:18:31.983Z,9.17
2022-12-19T10:21:37.015Z,7.53
2022-12-19T10:25:09.127Z,7.50
2022-12-19T10:28:00.078Z,7.80
2022-12-19T10:30:31.529Z,8.60
2022-12-19T10:33:20.581Z,8.20
2022-12-19T10:35:54.181Z,7.57
2022-12-19T10:38:33.998Z,8.07
2022-12-19T10:41:30.312Z,7.97
2022-12-19T10:44:09.476Z,7.70
2022-12-19T10:46:43.123Z,7.23
2022-12-19T10:49:21.965Z,11.77
2022-12-19T10:52:08.141Z,8.80
2022-12-19T10:54:37.861Z,7.80
2022-12-19T10:57:27.371Z,8.50
2022-12-19T10:59:58.896Z,7.67
2022-12-19T11:02:41.092Z,8.10
2022-12-19T11:05:22.815Z,7.93
2022-12-19T11:08:03.065Z,6.77
2022-12-19T11:11:57.564Z,7.50
2022-12-19T11:19:28.795Z,7.33
2022-12-19T11:22:22.139Z,6.93
2022-12-19T11:29:19.253Z,7.57
2022-12-19T11:29:35.025Z,7.30
2022-12-19T11:29:45.792Z,7.00
2022-12-19T11:29:54.360Z,8.00
2022-12-19T11:34:18.233Z,7.63
2022-12-19T11:37:14.332Z,6.30
2022-12-19T11:39:53.160Z,6.07
2022-12-19T11:42:30.630Z,6.27
2022-12-19T11:44:57.185Z,6.03
2022-12-19T11:47:38.172Z,6.50
2022-12-19T11:50:25.033Z,6.60
2022-12-19T11:53:19.243Z,6.87
2022-12-19T11:55:53.930Z,6.50
2022-12-19T11:58:24.420Z,6.63
2022-12-19T12:01:16.353Z,7.47
2022-12-19T12:04:02.279Z,5.93
2022-12-19T12:06:39.706Z,7.40
2022-12-19T12:13:10.797Z,7.40
2022-12-19T12:18:51.712Z,6.07
2022-12-19T12:22:32.999Z,8.10
2022-12-19T12:27:37.336Z,6.50
2022-12-19T12:31:16.859Z,7.40
2022-12-19T12:31:41.611Z,6.20
2022-12-19T12:31:49.211Z,6.77
2022-12-19T12:35:22.464Z,6.37
2022-12-19T12:38:26.901Z,5.57
2022-12-19T12:41:42.867Z,6.83
2022-12-19T12:44:12.082Z,7.03
2022-12-19T12:46:44.872Z,8.47
2022-12-19T12:49:37.068Z,8.80
2022-12-19T12:52:07.762Z,9.57
2022-12-19T12:54:41.523Z,9.50
2022-12-19T12:57:18.869Z,7.70
2022-12-19T12:59:47.385Z,7.60
2022-12-19T13:02:20.835Z,9.30
2022-12-19T13:05:15.056Z,8.30
2022-12-19T13:07:43.924Z,7.40
2022-12-19T13:10:13.296Z,7.13
2022-12-19T13:13:00.527Z,6.70
2022-12-19T13:15:27.161Z,7.20
2022-12-19T13:17:53.788Z,8.00
2022-12-19T13:20:29.641Z,5.70
2022-12-19T13:22:59.256Z,5.60
2022-12-19T13:25:34.667Z,6.13
2022-12-19T13:28:01.185Z,6.00
2022-12-19T13:30:54.324Z,5.73
2022-12-19T13:33:21.247Z,7.10
2022-12-19T13:39:52.108Z,6.50
2022-12-19T13:39:57.119Z,6.30
2022-12-19T13:42:00.730Z,6.50
2022-12-19T13:44:28.160Z,5.93
2022-12-19T13:46:56.049Z,6.33
2022-12-19T13:49:41.113Z,6.07
2022-12-19T13:52:11.781Z,5.23
2022-12-19T13:54:50.573Z,5.97
2022-12-19T13:57:28.933Z,5.20
2022-12-19T14:00:01.404Z,5.73
2022-12-19T14:02:43.715Z,5.87
2022-12-19T14:05:34.052Z,6.00
2022-12-19T14:08:19.149Z,6.10
2022-12-19T14:11:37.292Z,6.30
2022-12-19T14:14:08.252Z,5.80
2022-12-19T14:16:44.844Z,5.67
2022-12-19T14:19:24.398Z,6.57
2022-12-19T14:22:05.620Z,6.13
2022-12-19T14:24:39.011Z,5.63
2022-12-19T14:28:21.002Z,5.40
2022-12-19T14:30:29.096Z,6.00
2022-12-19T14:33:47.343Z,7.00
2022-12-19T14:36:11.994Z,5.93
2022-12-19T14:39:27.557Z,6.60
2022-12-19T14:41:48.460Z,7.63
2022-12-19T14:53:33.929Z,6.30
2022-12-19T14:54:16.637Z,6.47
2022-12-19T14:54:16.722Z,6.53
2022-12-19T14:54:26.486Z,5.20
2022-12-19T14:59:02.302Z,6.40
2022-12-19T15:01:32.176Z,7.27
2022-12-19T15:04:53.141Z,5.77
2022-12-19T15:07:11.708Z,6.23
2022-12-19T15:11:02.800Z,6.17
2022-12-19T15:14:51.744Z,5.83
2022-12-19T15:15:51.794Z,6.20
2022-12-19T15:18:23.225Z,5.10
2022-12-19T15:20:51.336Z,4.83
2022-12-19T15:23:22.340Z,5.37
2022-12-19T15:26:07.063Z,5.97
2022-12-19T15:28:43.094Z,7.37
2022-12-19T15:31:38.539Z,5.50
2022-12-19T15:34:48.226Z,4.87
2022-12-19T15:37:12.778Z,5.53
2022-12-19T15:39:40.322Z,5.10
2022-12-19T15:42:23.539Z,7.50
2022-12-19T15:44:52.542Z,5.63
2022-12-19T15:47:30.804Z,6.70
2022-12-19T15:50:02.391Z,5.27
2022-12-19T15:52:29.547Z,5.37
2022-12-19T15:54:57.305Z,4.40
2022-12-19T15:57:35.140Z,5.03
2022-12-19T16:00:05.499Z,4.90
2022-12-19T16:03:13.432Z,4.90
2022-12-19T16:05:23.401Z,4.70
2022-12-19T16:07:50.358Z,5.03
2022-12-19T16:10:17.441Z,5.13
2022-12-19T16:12:48.101Z,4.50
2022-12-19T16:15:24.740Z,4.57
2022-12-19T16:17:51.740Z,4.23
2022-12-19T16:20:21.424Z,3.80
2022-12-19T16:22:48.029Z,4.37
2022-12-19T16:25:17.236Z,5.07
2022-12-19T16:27:45.708Z,5.17
2022-12-19T16:30:21.536Z,4.90
2022-12-19T16:32:49.485Z,5.33
2022-12-19T16:35:34.325Z,5.27
2022-12-19T16:38:06.484Z,6.03
2022-12-19T16:40:33.039Z,5.77
2022-12-19T16:43:06.470Z,5.87
2022-12-19T16:45:34.378Z,7.33
2022-12-19T16:48:02.241Z,5.23
2022-12-19T16:50:31.115Z,5.60
2022-12-19T16:52:58.059Z,6.50
2022-12-19T16:55:25.703Z,8.10
2022-12-19T16:57:55.021Z,6.83
2022-12-19T17:00:23.435Z,7.57
2022-12-19T17:03:02.268Z,7.60
2022-12-19T17:05:32.012Z,6.03
2022-12-19T17:07:59.415Z,6.40
2022-12-19T17:10:31.381Z,5.00
2022-12-19T17:12:59.101Z,5.10
2022-12-19T17:15:36.855Z,4.67
2022-12-19T17:18:11.588Z,5.03
2022-12-19T17:20:46.090Z,4.60
2022-12-19T17:23:18.337Z,5.23
2022-12-19T17:25:45.617Z,5.23
2022-12-19T17:28:13.344Z,4.50
2022-12-19T17:30:42.346Z,5.87
2022-12-19T17:33:15.280Z,5.47
2022-12-19T17:35:42.513Z,6.53
2022-12-19T17:38:14.250Z,5.70
2022-12-19T17:40:41.707Z,5.30
2022-12-19T17:43:10.067Z,6.60
2022-12-19T17:45:36.692Z,5.97
2022-12-19T17:48:23.072Z,4.93
2022-12-19T17:50:49.675Z,4.50
2022-12-19T17:53:16.314Z,4.23
2022-12-19T17:55:43.073Z,4.33
2022-12-19T17:58:11.161Z,4.27
2022-12-19T18:00:39.537Z,4.13
2022-12-19T18:03:24.621Z,4.70
2022-12-19T18:05:53.650Z,3.93
2022-12-19T18:08:31.493Z,4.17
2022-12-19T18:11:00.744Z,5.90
2022-12-19T18:13:29.342Z,5.80
2022-12-19T18:15:58.934Z,4.87
2022-12-19T18:18:32.813Z,4.10
2022-12-19T18:21:01.315Z,5.00
2022-12-19T18:23:30.267Z,4.30
2022-12-19T18:26:01.551Z,4.97
2022-12-19T18:28:29.880Z,5.07
2022-12-19T18:31:03.572Z,3.73
2022-12-19T18:33:37.635Z,3.93
2022-12-19T18:36:05.740Z,3.73
2022-12-19T18:38:32.842Z,4.17
2022-12-19T18:40:59.486Z,3.53
2022-12-19T18:43:26.164Z,4.10
2022-12-19T18:45:52.974Z,3.60
2022-12-19T18:48:26.215Z,4.13
2022-12-19T18:50:54.734Z,4.07
2022-12-19T18:53:23.662Z,3.97
2022-12-19T18:55:51.247Z,4.43
2022-12-19T18:58:18.962Z,3.70
2022-12-19T19:00:45.760Z,4.83
2022-12-19T19:03:21.824Z,3.60
2022-12-19T19:05:48.567Z,4.13
2022-12-19T19:08:21.751Z,3.40
2022-12-19T19:10:49.934Z,4.07
2022-12-19T19:13:20.412Z,3.87
2022-12-19T19:15:53.745Z,3.87
2022-12-19T19:18:25.784Z,3.90
2022-12-19T19:21:00.447Z,3.30
2022-12-19T19:23:36.065Z,3.00
2022-12-19T19:26:02.811Z,3.50
2022-12-19T19:28:29.388Z,3.33
2022-12-19T19:30:57.223Z,3.90
2022-12-19T19:33:38.041Z,3.67
2022-12-19T19:36:12.108Z,3.60
2022-12-19T19:38:40.348Z,3.00
2022-12-19T19:41:06.949Z,3.27
2022-12-19T19:43:35.579Z,3.80
2022-12-19T19:46:02.598Z,3.60
2022-12-19T19:48:29.431Z,4.03
2022-12-19T19:50:56.697Z,3.77
2022-12-19T19:53:23.528Z,3.93
2022-12-19T19:56:00.673Z,3.60
2022-12-19T19:58:28.197Z,3.80
2022-12-19T20:00:54.933Z,3.30
2022-12-19T20:03:23.431Z,3.90
2022-12-19T20:05:50.837Z,3.70
2022-12-19T20:08:17.402Z,3.83
2022-12-19T20:10:44.048Z,3.37
2022-12-19T20:13:11.109Z,3.30
2022-12-19T20:15:37.950Z,3.10
2022-12-19T20:18:04.627Z,3.30
2022-12-19T20:20:33.552Z,3.33
2022-12-19T20:23:00.235Z,3.80
2022-12-19T20:25:26.767Z,3.60
2022-12-19T20:27:53.345Z,4.10
2022-12-19T20:30:19.956Z,3.47
2022-12-19T20:32:46.539Z,2.97
2022-12-19T20:35:15.034Z,3.53
2022-12-19T20:37:42.391Z,4.43
2022-12-19T20:40:09.761Z,3.43
2022-12-19T20:42:36.386Z,3.63
2022-12-19T20:45:03.207Z,4.00
2022-12-19T20:47:30.363Z,3.63
2022-12-19T20:49:56.946Z,3.50
2022-12-19T20:52:23.527Z,3.87
2022-12-19T20:54:50.359Z,4.40
2022-12-19T20:57:16.993Z,4.10
2022-12-19T20:59:43.764Z,3.77
2022-12-19T21:02:11.339Z,4.10
2022-12-19T21:04:38.301Z,3.77
2022-12-19T21:07:05.555Z,3.50
2022-12-19T21:09:32.104Z,3.97
2022-12-19T21:11:58.659Z,3.50
2022-12-19T21:14:25.256Z,3.43
2022-12-19T21:16:51.822Z,3.50
2022-12-19T21:19:18.437Z,3.00
2022-12-19T21:21:45.620Z,2.97
2022-12-19T21:24:12.667Z,3.93
2022-12-19T21:26:39.250Z,3.30
2022-12-19T21:29:05.857Z,3.50
2022-12-19T21:31:32.525Z,3.90
2022-12-19T21:34:00.967Z,3.70
2022-12-19T21:36:28.842Z,3.30
2022-12-19T21:38:57.541Z,3.13
2022-12-19T21:41:24.459Z,2.80
2022-12-19T21:43:53.633Z,3.27
2022-12-19T21:46:23.051Z,3.20
2022-12-19T21:48:51.809Z,2.70
2022-12-19T21:51:20.288Z,3.57
2022-12-19T21:53:47.657Z,3.10
2022-12-19T21:56:32.453Z,2.90
2022-12-19T21:59:01.763Z,3.17
2022-12-19T22:01:29.726Z,3.13
2022-12-19T22:04:06.322Z,3.40
2022-12-19T22:06:34.935Z,3.33
2022-12-19T22:09:01.863Z,3.50
2022-12-19T22:11:31.268Z,3.57
2022-12-19T22:14:01.898Z,3.77
2022-12-19T22:16:29.192Z,2.70
2022-12-19T22:18:56.405Z,3.60
2022-12-19T22:21:23.873Z,3.30
2022-12-19T22:23:52.212Z,3.27
2022-12-19T22:26:21.993Z,3.27
2022-12-19T22:28:50.870Z,3.87
2022-12-19T22:31:25.882Z,3.50
2022-12-19T22:33:58.658Z,3.70
2022-12-19T22:36:29.138Z,3.40
2022-12-19T22:38:57.049Z,3.00
2022-12-19T22:41:24.383Z,3.70
2022-12-19T22:43:51.792Z,3.27
2022-12-19T22:46:22.157Z,2.90
2022-12-19T22:48:50.011Z,3.00
2022-12-19T22:51:18.121Z,2.77
2022-12-19T22:53:45.600Z,3.20
2022-12-19T22:56:14.778Z,2.97
2022-12-19T22:58:43.743Z,3.03
2022-12-19T23:01:13.246Z,3.20
2022-12-19T23:03:40.172Z,3.03
2022-12-19T23:06:07.090Z,3.43
2022-12-19T23:08:35.498Z,2.90
2022-12-19T23:11:05.576Z,3.00
2022-12-19T23:13:32.254Z,3.10
2022-12-19T23:15:59.159Z,2.70
2022-12-19T23:18:25.952Z,2.70
2022-12-19T23:21:07.842Z,2.40
2022-12-19T23:23:40.280Z,2.37
2022-12-19T23:26:14.981Z,3.47
2022-12-19T23:28:44.203Z,3.00
2022-12-19T23:31:13.031Z,2.90
2022-12-19T23:33:39.632Z,2.57
2022-12-19T23:36:06.748Z,3.13
2022-12-19T23:38:33.470Z,2.70
2022-12-19T23:41:10.964Z,2.70
2022-12-19T23:43:38.450Z,2.60
2022-12-19T23:46:12.179Z,2.93
2022-12-19T23:48:38.819Z,2.70
2022-12-19T23:51:08.464Z,2.63
2022-12-19T23:53:35.141Z,2.60
2022-12-19T23:56:04.857Z,2.53
2022-12-19T23:58:31.407Z,2.83
